Terminal Aerodrome Forecast
Issued by NWS

Home | Current Version | Previous Version | Text Only | Print | Product List | Glossary On
Versions: 1 2 3 4 5 6 7 8 9 10 11 12 13 14 15 16 17 18 19 20 21 22 23 24 25 26 27 28 29 30
000
FTUS41 KBUF 192100 AAA
TAFIAG
TAF AMD
KIAG 192131Z 1922/2018 07016KT P6SM SCT150
     FM200100 10011KT P6SM OVC110
     FM200300 12011G25KT P6SM VCSH OVC090
     FM200600 10017G27KT 6SM -SHRA OVC045
     FM201000 13016G26KT 6SM -SHRA OVC030
     FM201300 16017G26KT P6SM VCSH OVC035
     FM201600 17016KT P6SM BKN035=

USA.gov is the U.S. government's official web portal to all federal, state and local government web resources and services.